createdAt,value
2023-02-11T00:00:12.552Z,38.25
2023-02-11T00:03:26.479Z,38.58
2023-02-11T00:06:20.771Z,38.62
2023-02-11T00:09:15.286Z,38.53
2023-02-11T00:12:09.404Z,38.53
2023-02-11T00:15:03.117Z,38.53
2023-02-11T00:17:56.846Z,38.46
2023-02-11T00:20:50.584Z,38.44
2023-02-11T00:23:44.995Z,38.30
2023-02-11T00:26:39.341Z,38.14
2023-02-11T00:29:33.060Z,38.17
2023-02-11T00:32:26.877Z,38.16
2023-02-11T00:35:20.651Z,38.40
2023-02-11T00:38:14.370Z,38.33
2023-02-11T00:41:08.408Z,38.35
2023-02-11T00:44:02.437Z,38.49
2023-02-11T00:46:56.190Z,38.31
2023-02-11T00:49:49.973Z,38.37
2023-02-11T00:52:43.658Z,38.25
2023-02-11T00:55:37.474Z,38.37
2023-02-11T00:58:31.487Z,38.16
2023-02-11T01:01:25.368Z,38.06
2023-02-11T01:04:19.247Z,38.35
2023-02-11T01:07:12.846Z,38.24
2023-02-11T01:10:07.328Z,38.24
2023-02-11T01:13:01.625Z,38.15
2023-02-11T01:15:55.641Z,38.13
2023-02-11T01:18:49.398Z,38.23
2023-02-11T01:21:43.132Z,38.30
2023-02-11T01:24:36.716Z,38.18
2023-02-11T01:27:30.457Z,38.29
2023-02-11T01:30:24.098Z,38.20
2023-02-11T01:33:18.311Z,38.07
2023-02-11T01:36:13.861Z,38.25
2023-02-11T01:39:08.535Z,38.22
2023-02-11T01:42:02.224Z,38.40
2023-02-11T01:44:58.522Z,38.42
2023-02-11T01:47:52.135Z,38.29
2023-02-11T01:50:47.709Z,38.33
2023-02-11T01:53:59.409Z,38.26
2023-02-11T01:57:14.285Z,38.25
2023-02-11T02:00:16.587Z,38.41
2023-02-11T02:03:15.581Z,38.26
2023-02-11T02:06:17.736Z,38.23
2023-02-11T02:09:17.947Z,38.30
2023-02-11T02:12:11.659Z,38.18
2023-02-11T02:15:28.140Z,38.38
2023-02-11T02:18:26.837Z,38.30
2023-02-11T02:22:00.792Z,38.27
2023-02-11T02:25:16.949Z,38.23
2023-02-11T02:28:37.220Z,38.38
2023-02-11T02:31:50.984Z,38.40
2023-02-11T02:34:55.460Z,38.31
2023-02-11T02:37:58.684Z,38.37
2023-02-11T02:40:59.103Z,38.20
2023-02-11T02:43:54.834Z,38.22
2023-02-11T02:46:48.700Z,38.15
2023-02-11T02:49:42.499Z,38.44
2023-02-11T02:52:48.165Z,38.41
2023-02-11T02:55:59.603Z,38.36
2023-02-11T02:59:19.919Z,38.35
2023-02-11T03:02:25.051Z,38.37
2023-02-11T03:05:24.634Z,38.27
2023-02-11T03:08:25.369Z,38.39
2023-02-11T03:11:21.966Z,38.48
2023-02-11T03:14:20.425Z,38.48
2023-02-11T03:17:15.325Z,38.50
2023-02-11T03:20:14.871Z,38.53
2023-02-11T03:23:16.327Z,38.44
2023-02-11T03:26:19.592Z,38.52
2023-02-11T03:29:24.312Z,38.39
2023-02-11T03:32:24.390Z,38.36
2023-02-11T03:35:24.017Z,38.47
2023-02-11T03:38:23.533Z,38.36
2023-02-11T03:41:21.077Z,38.55
2023-02-11T03:44:14.349Z,38.41
2023-02-11T03:47:11.818Z,38.50
2023-02-11T03:50:08.948Z,38.30
2023-02-11T03:53:04.158Z,38.27
2023-02-11T03:56:03.888Z,38.53
2023-02-11T03:58:57.866Z,38.33
2023-02-11T04:01:51.750Z,38.44
2023-02-11T04:04:45.927Z,38.45
2023-02-11T04:07:39.616Z,38.41
2023-02-11T04:10:33.506Z,38.22
2023-02-11T04:13:28.584Z,38.57
2023-02-11T04:16:22.314Z,38.52
2023-02-11T04:19:16.052Z,38.51
2023-02-11T04:22:09.837Z,38.63
2023-02-11T04:25:03.950Z,38.62
2023-02-11T04:27:57.760Z,38.50
2023-02-11T04:30:53.372Z,38.57
2023-02-11T04:33:38.465Z,38.56
2023-02-11T04:36:32.260Z,38.57
2023-02-11T04:39:25.966Z,38.46
2023-02-11T04:42:19.721Z,38.59
2023-02-11T04:45:13.946Z,38.41
2023-02-11T04:48:08.240Z,38.58
2023-02-11T04:51:02.204Z,38.51
2023-02-11T04:53:55.899Z,38.38
2023-02-11T04:56:51.110Z,38.58
2023-02-11T04:59:45.281Z,38.64
2023-02-11T05:02:39.141Z,38.56
2023-02-11T05:05:33.723Z,38.60
2023-02-11T05:08:27.395Z,38.59
2023-02-11T05:11:24.355Z,38.59
2023-02-11T05:14:18.103Z,38.68
2023-02-11T05:17:11.872Z,38.64
2023-02-11T05:20:06.630Z,38.65
2023-02-11T05:23:00.323Z,38.62
2023-02-11T05:25:53.947Z,38.75
2023-02-11T05:28:47.770Z,38.63
2023-02-11T05:31:41.494Z,38.64
2023-02-11T05:34:35.216Z,38.69
2023-02-11T05:37:29.356Z,38.73
2023-02-11T05:40:23.441Z,38.76
2023-02-11T05:43:17.104Z,38.67
2023-02-11T05:46:10.765Z,38.78
2023-02-11T05:49:04.752Z,38.74
2023-02-11T05:51:58.480Z,38.71
2023-02-11T05:54:52.414Z,38.85
2023-02-11T05:57:46.132Z,38.86
2023-02-11T06:00:40.289Z,38.99
2023-02-11T06:03:34.214Z,38.90
2023-02-11T06:06:28.268Z,39.14
2023-02-11T06:09:21.978Z,38.77
2023-02-11T06:12:15.762Z,38.98
2023-02-11T06:15:10.654Z,38.94
2023-02-11T06:18:04.449Z,39.74
2023-02-11T06:20:58.322Z,40.03
2023-02-11T06:23:51.963Z,40.19
2023-02-11T06:26:45.728Z,40.30
2023-02-11T06:29:39.405Z,40.29
2023-02-11T06:32:44.054Z,40.52
2023-02-11T06:35:40.711Z,40.36
2023-02-11T06:38:34.402Z,40.54
2023-02-11T06:41:28.113Z,40.42
2023-02-11T06:44:21.914Z,40.44
2023-02-11T06:47:15.686Z,40.37
2023-02-11T06:49:54.841Z,40.37
2023-02-11T06:52:48.710Z,40.39
2023-02-11T06:55:42.343Z,40.37
2023-02-11T06:58:36.332Z,40.46
2023-02-11T07:01:30.811Z,40.40
2023-02-11T07:04:24.540Z,40.13
2023-02-11T07:07:18.457Z,39.83
2023-02-11T07:09:52.088Z,39.89
2023-02-11T07:12:46.097Z,39.88
2023-02-11T07:15:20.269Z,40.22
2023-02-11T07:18:14.798Z,40.19
2023-02-11T07:21:12.335Z,39.91
2023-02-11T07:24:11.067Z,39.94
2023-02-11T07:27:05.130Z,40.46
2023-02-11T07:29:58.978Z,40.42
2023-02-11T07:32:52.717Z,39.43
2023-02-11T07:35:46.495Z,39.67
2023-02-11T07:38:41.181Z,39.81
2023-02-11T07:41:37.895Z,39.95
2023-02-11T07:44:33.216Z,40.16
2023-02-11T07:47:26.856Z,39.72
2023-02-11T07:50:21.438Z,38.88
2023-02-11T07:53:15.031Z,39.67
2023-02-11T07:56:11.519Z,37.93
2023-02-11T07:59:07.150Z,36.59
2023-02-11T08:02:00.807Z,41.86
2023-02-11T08:04:54.915Z,41.74
2023-02-11T08:07:49.369Z,41.19
2023-02-11T08:10:43.101Z,41.12
2023-02-11T08:13:37.172Z,39.28
2023-02-11T08:16:33.650Z,39.66
2023-02-11T08:19:28.090Z,40.88
2023-02-11T08:22:21.847Z,38.81
2023-02-11T08:25:15.647Z,38.48
2023-02-11T08:28:09.654Z,39.01
2023-02-11T08:31:09.194Z,40.52
2023-02-11T08:34:03.725Z,41.62
2023-02-11T08:36:57.458Z,41.04
2023-02-11T08:39:51.511Z,42.32
2023-02-11T08:42:45.258Z,41.47
2023-02-11T08:45:39.881Z,41.47
2023-02-11T08:48:33.790Z,41.09
2023-02-11T08:51:31.577Z,41.04
2023-02-11T08:54:25.327Z,41.21
2023-02-11T08:57:18.957Z,41.00
2023-02-11T09:00:16.522Z,41.04
2023-02-11T09:03:10.710Z,41.18
2023-02-11T09:06:07.902Z,41.14
2023-02-11T09:09:01.641Z,40.85
2023-02-11T09:11:57.388Z,41.11
2023-02-11T09:14:51.133Z,40.99
2023-02-11T09:17:45.120Z,40.78
2023-02-11T09:20:39.223Z,40.84
2023-02-11T09:23:34.450Z,40.50
2023-02-11T09:26:31.183Z,40.80
2023-02-11T09:29:24.913Z,40.41
2023-02-11T09:32:18.637Z,41.08
2023-02-11T09:35:09.330Z,41.31
2023-02-11T09:38:03.072Z,40.35
2023-02-11T09:40:56.899Z,40.32
2023-02-11T09:43:52.639Z,40.19
2023-02-11T09:47:00.815Z,40.37
2023-02-11T09:50:00.138Z,40.34
2023-02-11T09:53:01.636Z,40.18
2023-02-11T09:55:59.450Z,40.08
2023-02-11T09:58:51.684Z,40.08
2023-02-11T10:02:08.504Z,40.44
2023-02-11T10:05:34.644Z,40.23
2023-02-11T10:08:42.540Z,40.09
2023-02-11T10:11:50.803Z,40.52
2023-02-11T10:15:18.549Z,40.53
2023-02-11T10:18:44.890Z,40.25
2023-02-11T10:21:51.566Z,40.49
2023-02-11T10:24:52.533Z,40.78
2023-02-11T10:27:47.348Z,40.88
2023-02-11T10:30:52.633Z,40.32
2023-02-11T10:33:35.541Z,40.11
2023-02-11T10:36:34.030Z,40.08
2023-02-11T10:39:18.546Z,40.41
2023-02-11T10:42:03.671Z,40.33
2023-02-11T10:45:06.360Z,40.39
2023-02-11T10:48:00.729Z,40.32
2023-02-11T10:51:24.372Z,40.45
2023-02-11T10:54:21.262Z,40.19
2023-02-11T10:57:21.403Z,40.87
2023-02-11T11:00:32.472Z,40.54
2023-02-11T11:03:08.761Z,40.82
2023-02-11T11:06:05.314Z,40.49
2023-02-11T11:08:59.171Z,40.66
2023-02-11T11:11:56.727Z,40.68
2023-02-11T11:14:58.118Z,40.60
2023-02-11T11:17:53.178Z,40.61
2023-02-11T11:20:59.879Z,40.72
2023-02-11T11:24:00.417Z,40.85
2023-02-11T11:26:56.499Z,40.21
2023-02-11T11:29:53.268Z,40.72
2023-02-11T11:32:47.926Z,40.95
2023-02-11T11:35:41.992Z,41.10
2023-02-11T11:38:38.189Z,41.35
2023-02-11T11:41:35.160Z,42.54
2023-02-11T11:44:33.495Z,42.67
2023-02-11T11:47:45.789Z,42.47
2023-02-11T11:50:44.544Z,42.68
2023-02-11T11:53:46.672Z,42.01
2023-02-11T11:56:48.552Z,41.68
2023-02-11T11:59:42.380Z,41.81
2023-02-11T12:03:21.594Z,41.92
2023-02-11T12:06:35.463Z,41.86
2023-02-11T12:09:25.450Z,41.22
2023-02-11T12:12:35.457Z,41.18
2023-02-11T12:15:37.534Z,41.37
2023-02-11T12:18:52.988Z,40.91
2023-02-11T12:21:55.907Z,41.29
2023-02-11T12:25:13.804Z,41.56
2023-02-11T12:28:40.222Z,41.35
2023-02-11T12:31:49.151Z,41.73
2023-02-11T12:35:08.935Z,42.92
2023-02-11T12:38:53.793Z,43.45
2023-02-11T12:42:24.401Z,42.67
2023-02-11T12:45:31.954Z,42.48
2023-02-11T12:48:26.602Z,42.53
2023-02-11T12:51:34.773Z,42.91
2023-02-11T12:54:34.422Z,42.87
2023-02-11T12:57:32.490Z,42.44
2023-02-11T13:00:22.324Z,42.03
2023-02-11T13:03:25.504Z,41.96
2023-02-11T13:06:23.740Z,41.69
2023-02-11T13:09:24.041Z,41.69
2023-02-11T13:12:36.546Z,41.38
2023-02-11T13:15:31.071Z,41.42
2023-02-11T13:18:44.992Z,41.23
2023-02-11T13:22:01.028Z,41.44
2023-02-11T13:25:03.703Z,40.91
2023-02-11T13:27:58.858Z,40.97
2023-02-11T13:31:03.238Z,41.12
2023-02-11T13:33:57.353Z,41.09
2023-02-11T13:36:57.284Z,40.86
2023-02-11T13:40:03.891Z,40.54
2023-02-11T13:43:00.244Z,40.82
2023-02-11T13:45:59.092Z,40.39
2023-02-11T13:48:55.384Z,40.28
2023-02-11T13:51:46.267Z,40.01
2023-02-11T13:54:42.705Z,39.94
2023-02-11T13:57:43.279Z,39.76
2023-02-11T14:00:54.014Z,39.70
2023-02-11T14:04:38.049Z,39.66
2023-02-11T14:08:06.615Z,39.53
2023-02-11T14:10:57.760Z,39.54
2023-02-11T14:14:18.409Z,39.59
2023-02-11T14:17:33.085Z,39.56
2023-02-11T14:20:45.400Z,39.39
2023-02-11T14:23:39.410Z,39.29
2023-02-11T14:26:48.049Z,39.28
2023-02-11T14:30:00.084Z,39.18
2023-02-11T14:32:58.144Z,39.24
2023-02-11T14:36:11.314Z,39.12
2023-02-11T14:39:17.751Z,39.55
2023-02-11T14:42:19.935Z,39.60
2023-02-11T14:45:21.004Z,39.66
2023-02-11T14:48:19.692Z,39.73
2023-02-11T14:51:19.536Z,39.53
2023-02-11T14:54:18.628Z,40.75
2023-02-11T14:57:16.708Z,40.42
2023-02-11T15:00:23.467Z,39.82
2023-02-11T15:03:33.802Z,40.02
2023-02-11T15:06:33.055Z,41.35
2023-02-11T15:09:25.454Z,41.78
2023-02-11T15:12:02.455Z,42.76
2023-02-11T15:14:41.672Z,41.85
2023-02-11T15:17:35.923Z,42.47
2023-02-11T15:20:33.365Z,42.08
2023-02-11T15:23:30.220Z,43.12
2023-02-11T15:26:24.539Z,44.46
2023-02-11T15:29:21.199Z,43.11
2023-02-11T15:32:22.047Z,43.21
2023-02-11T15:34:58.587Z,43.73
2023-02-11T15:37:52.403Z,43.84
2023-02-11T15:40:58.568Z,43.60
2023-02-11T15:43:51.578Z,45.97
2023-02-11T15:46:41.509Z,46.23
2023-02-11T15:49:35.431Z,45.74
2023-02-11T15:52:30.962Z,45.75
2023-02-11T15:55:26.314Z,45.84
2023-02-11T15:58:21.688Z,45.19
2023-02-11T16:01:15.539Z,44.71
2023-02-11T16:04:15.994Z,44.39
2023-02-11T16:07:41.011Z,44.44
2023-02-11T16:10:37.187Z,45.36
2023-02-11T16:13:34.167Z,45.30
2023-02-11T16:16:30.876Z,44.92
2023-02-11T16:19:27.278Z,44.51
2023-02-11T16:22:25.344Z,44.58
2023-02-11T16:25:24.579Z,44.22
2023-02-11T16:28:21.362Z,44.16
2023-02-11T16:31:15.392Z,44.29
2023-02-11T16:34:18.625Z,43.97
2023-02-11T16:37:13.021Z,43.66
2023-02-11T16:40:08.210Z,44.23
2023-02-11T16:43:02.256Z,43.91
2023-02-11T16:45:56.357Z,43.17
2023-02-11T16:48:50.533Z,43.79
2023-02-11T16:51:46.347Z,44.36
2023-02-11T16:54:40.205Z,43.84
2023-02-11T16:57:26.942Z,44.21
2023-02-11T17:00:24.409Z,44.27
2023-02-11T17:03:26.919Z,43.98
2023-02-11T17:06:17.668Z,43.94
2023-02-11T17:09:16.947Z,44.59
2023-02-11T17:12:11.452Z,43.92
2023-02-11T17:15:07.591Z,43.72
2023-02-11T17:18:01.775Z,43.99
2023-02-11T17:20:56.758Z,43.75
2023-02-11T17:23:50.463Z,43.51
2023-02-11T17:26:45.370Z,43.26
2023-02-11T17:29:39.747Z,43.87
2023-02-11T17:32:33.733Z,43.92
2023-02-11T17:35:27.629Z,43.61
2023-02-11T17:38:22.501Z,43.10
2023-02-11T17:41:16.548Z,43.26
2023-02-11T17:44:14.068Z,43.02
2023-02-11T17:47:08.089Z,43.13
2023-02-11T17:50:02.993Z,42.96
2023-02-11T17:52:56.927Z,42.94
2023-02-11T17:55:51.057Z,42.96
2023-02-11T17:58:45.923Z,43.03
2023-02-11T18:01:42.326Z,42.43
2023-02-11T18:04:36.365Z,42.95
2023-02-11T18:07:30.257Z,43.97
2023-02-11T18:10:24.888Z,42.85
2023-02-11T18:13:19.411Z,42.93
2023-02-11T18:16:15.823Z,43.23
2023-02-11T18:19:11.603Z,43.04
2023-02-11T18:21:54.561Z,42.79
2023-02-11T18:24:52.253Z,42.75
2023-02-11T18:27:44.884Z,43.01
2023-02-11T18:30:39.012Z,42.88
2023-02-11T18:33:33.955Z,43.02
2023-02-11T18:36:14.324Z,42.98
2023-02-11T18:38:48.034Z,42.76
2023-02-11T18:41:25.442Z,42.63
2023-02-11T18:44:22.298Z,43.14
2023-02-11T18:47:16.027Z,42.61
2023-02-11T18:50:15.551Z,42.45
2023-02-11T18:53:09.459Z,43.70
2023-02-11T18:56:18.591Z,43.22
2023-02-11T18:59:12.640Z,42.79
2023-02-11T19:02:06.370Z,42.57
2023-02-11T19:05:00.261Z,42.66
2023-02-11T19:07:54.120Z,42.50
2023-02-11T19:10:50.362Z,42.17
2023-02-11T19:13:44.339Z,42.04
2023-02-11T19:16:38.406Z,41.86
2023-02-11T19:19:37.046Z,41.12
2023-02-11T19:22:31.220Z,41.86
2023-02-11T19:25:25.286Z,42.92
2023-02-11T19:28:19.399Z,42.49
2023-02-11T19:31:13.625Z,43.05
2023-02-11T19:34:08.687Z,42.85
2023-02-11T19:37:02.425Z,42.48
2023-02-11T19:39:56.220Z,42.79
2023-02-11T19:42:35.338Z,42.76
2023-02-11T19:45:29.275Z,42.24
2023-02-11T19:48:23.173Z,42.13
2023-02-11T19:51:17.265Z,42.45
2023-02-11T19:54:11.290Z,42.29
2023-02-11T19:57:05.251Z,42.30
2023-02-11T19:59:59.300Z,42.42
2023-02-11T20:02:38.385Z,42.26
2023-02-11T20:05:32.698Z,42.28
2023-02-11T20:08:26.558Z,42.23
2023-02-11T20:11:20.982Z,42.32
2023-02-11T20:14:16.774Z,42.01
2023-02-11T20:17:10.888Z,42.98
2023-02-11T20:20:04.937Z,43.59
2023-02-11T20:22:44.191Z,42.47
2023-02-11T20:25:41.367Z,43.53
2023-02-11T20:28:35.011Z,42.73
2023-02-11T20:31:30.044Z,42.39
2023-02-11T20:34:25.202Z,43.00
2023-02-11T20:37:19.330Z,42.85
2023-02-11T20:40:14.917Z,42.56
2023-02-11T20:43:09.384Z,42.69
2023-02-11T20:46:09.574Z,42.71
2023-02-11T20:49:06.133Z,42.59
2023-02-11T20:52:00.587Z,42.63
2023-02-11T20:54:54.257Z,42.56
2023-02-11T20:57:48.073Z,42.87
2023-02-11T21:00:41.961Z,43.58
2023-02-11T21:03:35.758Z,42.71
2023-02-11T21:06:35.533Z,42.50
2023-02-11T21:09:32.517Z,42.47
2023-02-11T21:12:26.372Z,42.48
2023-02-11T21:15:21.038Z,42.51
2023-02-11T21:18:14.617Z,42.36
2023-02-11T21:21:08.878Z,42.47
2023-02-11T21:24:02.641Z,42.32
2023-02-11T21:26:56.394Z,42.36
2023-02-11T21:29:54.548Z,42.38
2023-02-11T21:32:48.871Z,42.21
2023-02-11T21:35:42.652Z,42.22
2023-02-11T21:38:36.307Z,42.16
2023-02-11T21:41:30.096Z,42.08
2023-02-11T21:44:23.730Z,42.11
2023-02-11T21:47:17.415Z,42.00
2023-02-11T21:50:12.757Z,42.03
2023-02-11T21:53:07.135Z,42.08
2023-02-11T21:56:10.015Z,41.96
2023-02-11T21:59:04.506Z,42.05
2023-02-11T22:01:58.949Z,42.10
2023-02-11T22:04:53.203Z,41.94
2023-02-11T22:07:47.257Z,41.94
2023-02-11T22:10:41.008Z,41.76
2023-02-11T22:13:35.054Z,41.98
2023-02-11T22:16:30.399Z,41.98
2023-02-11T22:19:25.009Z,42.02
2023-02-11T22:22:19.705Z,42.13
2023-02-11T22:25:13.466Z,42.02
2023-02-11T22:28:07.582Z,42.18
2023-02-11T22:31:01.831Z,42.14
2023-02-11T22:33:55.878Z,42.17
2023-02-11T22:36:49.520Z,42.10
2023-02-11T22:39:43.223Z,42.25
2023-02-11T22:42:36.880Z,42.02
2023-02-11T22:45:30.651Z,42.07
2023-02-11T22:48:24.556Z,42.29
2023-02-11T22:51:20.562Z,42.24
2023-02-11T22:54:18.335Z,42.23
2023-02-11T22:57:10.348Z,42.36
2023-02-11T23:00:09.714Z,42.20
2023-02-11T23:03:03.462Z,42.38
2023-02-11T23:05:58.627Z,42.44
2023-02-11T23:08:52.385Z,42.38
2023-02-11T23:11:46.873Z,42.46
2023-02-11T23:14:40.566Z,42.48
2023-02-11T23:17:34.558Z,42.46
2023-02-11T23:20:28.523Z,42.54
2023-02-11T23:23:22.217Z,42.53
2023-02-11T23:26:18.034Z,42.62
2023-02-11T23:29:12.580Z,42.69
2023-02-11T23:32:06.607Z,42.67
2023-02-11T23:35:00.717Z,42.65
2023-02-11T23:37:55.470Z,42.79
2023-02-11T23:40:49.156Z,42.82
2023-02-11T23:43:43.698Z,42.87
2023-02-11T23:46:37.484Z,42.96
2023-02-11T23:49:31.529Z,42.96
2023-02-11T23:52:25.220Z,42.89
2023-02-11T23:55:19.376Z,42.81
2023-02-11T23:58:14.431Z,42.96
